Crooked Creek Research Lab Weather observations

Data are for 10 minute period ending at time listed.
 Day   Time    Ave.   Ave.  Ave.  Vector   Max.   Stn.    Total    Solar   Ave.   Snow 
  of    of     Air    Rel.  Wind   Wind    Wind   Baro.  Precip.   Rad.    Soil   Depth
Year   Day     Temp.  Hum.  Speed  Dir.    Gust   Pres.                    Temp.       
2014   (PST)    F      %     mph   deg.    mph     mb.     in.     W/m2     F      in. 
---------------------------------------------------------------------------------------  
 303   17:00   39.4    35    2.9   169      4.0   706.5    0.00       1    999.0    -0.7
 303   17:10   38.2    36    2.0   157      4.9   706.5    0.00       0    999.0    -0.7
 303   17:20   36.7    38    1.2   189      3.7   706.5    0.00       0    999.0    -0.6
 303   17:30   36.7    38    2.2   162      3.8   706.3    0.00       0    999.0    -0.6
 303   17:40   34.7    40    1.8   126      3.3   706.4    0.00       0    999.0    -0.8
 303   17:50   34.3    40    1.7   212      7.0   706.4    0.00       0    999.0    -0.7
 303   18:00   33.5    40    1.5   213      7.2   706.4    0.00       0    999.0    -0.7
 303   18:10   32.9    42    1.3   238      3.7   706.5    0.00       0    999.0    -0.6
 303   18:20   32.4    43    0.2   220      1.2   706.5    0.00       0    999.0    -0.7
 303   18:30   32.3    44    0.2   204      1.4   706.4    0.00       0    999.0    -0.6
 303   18:40   32.3    44    1.0   140      3.3   706.5    0.00       0    999.0    -0.5
 303   18:50   31.5    43    1.8   197      3.9   706.4    0.00       0    999.0    -0.7
 303   19:00   30.8    45    1.3   163      3.7   706.5    0.00       0    999.0    -0.6
 303   19:10   31.3    45    1.7   154      3.7   706.4    0.00       0    999.0    -0.6
 303   19:20   31.5    45    1.5   133      3.9   706.6    0.00       0    999.0    -0.7
 303   19:30   30.6    46    0.1   180      0.9   706.6    0.00       0    999.0    -0.5
 303   19:40   30.5    48    1.0   218      4.8   706.5    0.00       0    999.0    -0.5
 303   19:50   31.3    46    1.2   218      4.9   706.5    0.00       0    999.0    -0.6
 303   20:00   31.7    45    2.5   175      4.7   706.5    0.00       0    999.0    -0.7
 303   20:10   31.3    45    1.4   153      5.5   706.5    0.00       0    999.0    -0.7
 303   20:20   30.3    46    0.9   232      5.4   706.5    0.00       0    999.0    -0.6
 303   20:30   29.4    47    0.8   240      2.8   706.6    0.00       0    999.0    -0.5
 303   20:40   28.5    49    0.1   230      0.9   706.5    0.00       0    999.0    -0.6
 303   20:50   28.3    50    0.2   217      1.5   706.7    0.00       0    999.0    -0.3
 303   21:00   29.4    48    0.8   213      3.4   706.6    0.00       0    999.0    -0.6
 303   21:10   28.2    50    0.6   198      2.1   706.6    0.00       0    999.0    -0.5
 303   21:20   28.6    50    0.1   209      0.7   706.5    0.00       0    999.0    -0.6
 303   21:30   28.2    51    0.6   147      2.7   706.6    0.00       0    999.0    -0.5
 303   21:40   28.3    51    0.6   196      2.2   706.5    0.00       0    999.0    -0.5
 303   21:50   28.9    49    1.2   154      3.4   706.6    0.00       0    999.0    -0.5
 303   22:00   29.1    48    1.1   232      3.7   706.6    0.00       0    999.0    -0.5
 303   22:10   29.4    45    2.0   210      4.3   706.7    0.00       0    999.0    -0.7
 303   22:20   28.8    46    0.0   193      0.5   706.4    0.00       0    999.0    -0.5
 303   22:30   29.0    43    0.7   145      2.3   706.3    0.00       0    999.0    -0.5
 303   22:40   27.7    45    0.8   236      3.5   706.3    0.00       0    999.0    -0.6
 303   22:50   27.4    45    0.2   219      2.0   706.4    0.00       0    999.0    -0.4
 303   23:00   27.7    44    0.6   194      4.1   706.3    0.00       0    999.0    -0.5
 303   23:10   27.6    45    0.7   185      2.9   706.2    0.00       0    999.0    -0.5
 303   23:20   27.6    44    1.1   137      2.6   706.1    0.00       0    999.0    -0.6
 303   23:30   27.0    47    0.9   236      3.6   706.1    0.00       0    999.0    -0.6
 303   23:40   26.4    48    0.0   182      0.7   706.1    0.00       0    999.0    -0.4
 303   23:50   26.9    47    1.2   127      2.9   706.0    0.00       0    999.0    -0.5
 304    0:00   26.5    48    0.7   185      3.1   706.0    0.00       0    999.0    -0.5
 304    0:10   26.5    48    0.3   159      2.3   705.8    0.00       0    999.0    -0.5
 304    0:20   26.2    48    0.8   130      3.3   705.8    0.00       0    999.0    -0.4
 304    0:30   26.8    46    0.5   194      2.3   705.8    0.00       0    999.0    -0.4
 304    0:40   26.9    45    1.4   133      4.5   705.8    0.00       0    999.0    -0.6
 304    0:50   26.8    46    0.8   142      2.7   705.7    0.00       0    999.0    -0.4
 304    1:00   27.3    45    1.9   163      3.7   705.7    0.00       0    999.0    -0.6
 304    1:10   26.2    47    0.2   228      1.5   705.5    0.00       0    999.0    -0.5
 304    1:20   26.3    47    0.7   147      3.8   705.5    0.00       0    999.0    -0.5
 304    1:30   27.1    46    0.7   136      2.9   705.5    0.00       0    999.0    -0.5
 304    1:40   27.2    46    0.7   191      2.7   705.5    0.00       0    999.0    -0.6
 304    1:50   27.2    45    1.6   138      5.1   705.5    0.00       0    999.0    -0.6
 304    2:00   26.3    45    1.7   128      3.4   705.3    0.00       0    999.0    -0.6
 304    2:10   26.4    44    1.3   187      3.4   705.3    0.00       0    999.0    -0.5
 304    2:20   28.4    41    1.7   148      3.7   705.2    0.00       0    999.0    -0.6
 304    2:30   29.6    42    2.5   240      6.4   705.0    0.00       0    999.0    -0.7
 304    2:40   27.7    44    0.9   234      4.2   705.0    0.00       0    999.0    -0.7
 304    2:50   27.1    43    1.5   216      6.4   704.9    0.00       0    999.0    -0.5
 304    3:00   28.9    37    3.2   123      5.1   705.0    0.00       0    999.0    -0.5
 304    3:10   28.5    37    2.1   131      4.2   704.9    0.00       0    999.0    -0.6
 304    3:20   27.7    35    1.5   164      3.8   704.8    0.00       0    999.0    -0.5
 304    3:30   29.5    31    2.4   144      4.5   704.7    0.00       0    999.0    -0.4
 304    3:40   31.6    25    2.1   194      5.5   704.7    0.00       0    999.0    -0.6
 304    3:50   30.2    26    1.2   100      5.6   704.7    0.00       0    999.0    -0.7
 304    4:00   27.7    28    0.9   150      2.9   704.5    0.00       0    999.0    -0.6
 304    4:10   27.3    28    0.8   154      4.3   704.5    0.00       0    999.0    -0.7
 304    4:20   28.7    25    0.9   184      2.9   704.7    0.00       0    999.0    -0.4
 304    4:30   30.6    25    2.4   143      4.0   704.7    0.00       0    999.0    -0.6
 304    4:40   28.9    28    1.3   126      4.0   704.6    0.00       0    999.0    -0.5
 304    4:50   30.0    27    2.0   180      5.5   704.5    0.00       0    999.0    -0.6
 304    5:00   30.0    28    2.0   146      5.3   704.7    0.00       0    999.0    -0.6
 304    5:10   31.9    26    2.3   192      7.0   704.5    0.00       0    999.0    -0.4
 304    5:20   31.7    27    2.6   212      5.8   704.7    0.00       0    999.0    -0.7
 304    5:30   30.8    29    2.5   165      5.3   704.7    0.00       0    999.0    -0.6
 304    5:40   29.8    32    1.7   130      4.7   704.5    0.00       0    999.0    -0.7
 304    5:50   29.4    34    2.0   134      4.5   704.5    0.00       1    999.0    -0.5
 304    6:00   29.0    36    1.7   124      3.9   704.7    0.00       5    999.0    -0.6
 304    6:10   27.6    38    0.9   133      2.7   704.7    0.00       5    999.0    -0.6
 304    6:20   27.7    38    1.1   134      4.4   704.6    0.00      10    999.0    -0.4
 304    6:30   28.0    40    1.0   130      3.6   704.6    0.00      19    999.0    -0.5
 304    6:40   30.0    38    1.1   134      3.1   704.7    0.00      32    999.0    -0.4
 304    6:50   33.2    35    2.2   159      5.5   704.8    0.00      46    999.0    -0.4
 304    7:00   37.9    30    2.6   178      7.0   705.0    0.00      58    999.0    -0.5
 304    7:10   39.7    29    1.6   178      4.7   704.8    0.00      73    999.0    -0.4
 304    7:20   41.8    28    1.9   170      7.0   704.8    0.00     139    999.0    -0.3
 304    7:30   45.4    26    1.6   161      5.0   705.1    0.00     296    999.0    -0.5
 304    7:40   47.7    24    2.8   207      7.3   705.1    0.00     307    999.0    -0.5
 304    7:50   47.2    24    3.0   224      8.6   705.2    0.00     307    999.0    -0.5
 304    8:00   46.9    24    5.3   234     12.8   705.2    0.00     310    999.0    -0.5
 304    8:10   47.4    24    6.0   237     14.5   705.0    0.00     391    999.0    -0.5
 304    8:20   47.9    23    7.6   241     16.4   705.1    0.00     446    999.0    -0.5
 304    8:30   48.2    24    5.0   232     13.2   705.2    0.00     435    999.0    -0.4
 304    8:40   49.8    23    3.2   217     11.4   705.1    0.00     472    999.0    -0.5
 304    8:50   50.4    24    3.2   162      9.3   705.1    0.00     521    999.0    -0.6
 304    9:00   49.7    27    3.7   189      9.2   705.1    0.00     411    999.0    -0.5
 304    9:10   49.2    27    3.2   205      8.3   705.1    0.00     482    999.0    -0.4
 304    9:20   50.4    25    4.6   154     16.4   705.1    0.00     472    999.0    -0.5
 304    9:30   49.8    26    6.8   133     14.0   705.0    0.00     547    999.0    -0.3
 304    9:40   48.5    26    7.4   137     15.7   705.0    0.00     403    999.0    -0.4
 304    9:50   48.7    26    6.7   134     13.5   704.9    0.00     549    999.0    -0.3
 304   10:00   48.9    25    6.1   141     13.3   705.0    0.00     397    999.0    -0.3
 304   10:10   47.9    26    7.5   132     12.9   704.8    0.00     379    999.0    -0.3
 304   10:20   48.3    25    7.1   132     13.0   704.8    0.00     463    999.0    -0.2
 304   10:30   47.8    27    7.2   130     12.9   704.8    0.00     443    999.0    -0.3
 304   10:40   48.2    28    7.3   131     15.8   704.7    0.00     615    999.0    -0.4
 304   10:50   49.4    27    6.3   128     13.7   704.6    0.00     675    999.0    -0.4
 304   11:00   48.8    27    6.7   141     12.9   704.6    0.00     633    999.0    -0.3
 304   11:10   48.8    27    6.3   139     12.1   704.5    0.00     517    999.0    -0.3
 304   11:20   49.5    27    5.0   140     11.0   704.4    0.00     622    999.0    -0.4
 304   11:30   49.0    27    7.1   136     14.0   704.2    0.00     679    999.0    -0.3
 304   11:40   49.7    26    6.5   142     11.3   704.2    0.00     684    999.0    -0.3
 304   11:50   49.9    26    7.1   135     15.4   704.1    0.00     572    999.0    -0.3
 304   12:00   48.9    27    5.4   136     13.3   704.0    0.00     398    999.0    -0.3
 304   12:10   48.1    28    6.0   131     14.2   704.0    0.00     518    999.0    -0.3
 304   12:20   48.9    27    4.9   131     10.1   703.7    0.00     567    999.0    -0.2
 304   12:30   49.0    27    5.2   133     12.5   703.6    0.00     551    999.0    -0.5
 304   12:40   49.6    26    6.3   135     12.4   703.6    0.00     696    999.0    -0.3
 304   12:50   49.2    26    4.2   134      8.6   703.5    0.00     383    999.0    -0.3
 304   13:00   48.5    26    4.0   130      9.4   703.4    0.00     411    999.0    -0.3
 304   13:10   49.0    26    4.6   133     11.0   703.2    0.00     445    999.0    -0.4
 304   13:20   48.3    27    4.4   142     11.2   703.4    0.00     314    999.0    -0.3
 304   13:30   48.2    27    3.6   143     13.9   703.2    0.00     437    999.0    -0.3
 304   13:40   47.9    27    3.9   143     10.2   703.2    0.00     273    999.0    -0.3
 304   13:50   46.1    29    6.3   137     12.6   703.1    0.00     154    999.0    -0.2
 304   14:00   45.4    30    5.0   130     11.0   702.9    0.00     256    999.0    -0.2
 304   14:10   46.8    29    6.2   136     15.0   702.9    0.00     499    999.0    -0.2
 304   14:20   47.3    28    6.5   153     14.3   702.8    0.00     418    999.0    -0.3
 304   14:30   47.4    28    4.6   156     13.3   702.9    0.00     388    999.0    -0.3
 304   14:40   47.0    28    3.5   187     12.1   703.1    0.00     281    999.0    -0.3
 304   14:50   45.7    28    6.7   128     11.8   703.0    0.00     160    999.0    -0.4
 304   15:00   44.2    30    3.6   141      9.3   702.9    0.00     147    999.0    -0.2
 304   15:10   44.6    30    3.3   177     10.8   702.8    0.00     199    999.0    -0.3
 304   15:20   44.7    30    3.6   188      8.3   702.7    0.00     151    999.0    -0.2
 304   15:30   44.3    30    3.4   163      9.1   702.5    0.00     138    999.0    -0.2
 304   15:40   43.6    31    3.7   170     10.0   702.5    0.00      77    999.0    -0.3
 304   15:50   43.3    31    2.9   208      6.9   702.4    0.00      60    999.0    -0.3
 304   16:00   42.5    31    3.4   194      7.6   702.4    0.00      32    999.0    -0.4
 304   16:10   42.0    32    3.0   162      5.8   702.3    0.00      35    999.0    -0.3
 304   16:20   42.1    31    3.1   173      8.0   702.2    0.00      27    999.0    -0.4
 304   16:30   41.8    32    4.9   183     11.7   702.2    0.00      11    999.0    -0.4
 304   16:40   41.2    32    4.7   175      8.7   702.1    0.00       4    999.0    -0.4
 304   16:50   40.8    32    4.3   188      7.5   702.1    0.00       1    999.0    -0.4

Return to Crooked Creek Research Lab graphs page.


Western Regional Climate Center,wrcc@dri.edu